Decoded Metar for GOBD ( in ) (IATA:) | Meteo·Mobile Aviation Weather
aviador You're here:

GOBD Decoded Metar

in
Report Time2019-04-25 22:00:00
UTC Time2019-04-25 22:09:26
Flight Rules vfr VFR
Wind350° at 15 kt
Visibility9999 m
Phenomena:N/A
Clouds:N/A
Expected CloudBase > 3,200 ft AGL from Temp-Dew spread
CeilingNone
Temp23°C
Dew Point15°C (61% RH)
AAT19.2°C
QNH1012 hPa
Raw Report
METAR GOBD 252200Z 35015KT CAVOK 23/15 Q1012 NOSIG=####018000466####
SAER32 OMAE 252200

Extra information for GOBD:More info

Social comments